Overview Statistics Trail Chart Weather Telemetry Raw packets
 

This is the latest recevied weather packets stored in our database for station/object PP5CFL-13. If no packets are shown the sender has not sent any weather packets the latest 10 day(s).

<< 30 31 32 33 34 35 36 >>
Time Temp. Humidity Pressure Rain* Wind** Luminosity Snow
1788457360 23.33° C 70% 1015.6 hPa - - - -
1788457060 23.33° C 71% 1015.8 hPa - - - -
1788456760 22.78° C 70% 1015.8 hPa - - - -
1788456460 23.33° C 70% 1015.9 hPa - - - -
1788456160 23.33° C 69% 1015.8 hPa - - - -
1788455860 23.89° C 69% 1015.8 hPa - - - -
1788455560 23.33° C 69% 1015.8 hPa - - - -
1788455260 23.89° C 68% 1015.9 hPa - - - -
1788454960 23.89° C 69% 1016.1 hPa - - - -
1788454660 23.89° C 70% 1016.1 hPa - - - -
1788454360 23.33° C 72% 1016.4 hPa - - - -
1788454060 23.33° C 71% 1016.5 hPa - - - -
1788453760 23.33° C 72% 1016.6 hPa - - - -
1788453460 23.33° C 69% 1016.5 hPa - - - -
1788453160 23.89° C 69% 1016.8 hPa - - - -
1788452860 23.33° C 70% 1016.8 hPa - - - -
1788452560 23.33° C 70% 1016.9 hPa - - - -
1788452260 23.33° C 71% 1017 hPa - - - -
1788451960 22.78° C 73% 1017.1 hPa - - - -
1788451660 22.78° C 72% 1017.2 hPa - - - -
1788451360 22.78° C 72% 1017.4 hPa - - - -
1788451060 22.78° C 73% 1017.6 hPa - - - -
1788450760 23.33° C 71% 1017.7 hPa - - - -
1788450460 23.33° C 71% 1017.7 hPa - - - -
1788450160 22.78° C 72% 1017.9 hPa - - - -

* Rain since midnight (hover to see other rain measurements)
** Current wind speed in m/s (hover to see current wind gust speed)